createdAt,value
2017-10-22T00:01:42.823Z,14.68
2017-10-22T00:04:17.585Z,14.29
2017-10-22T00:06:54.780Z,14.41
2017-10-22T00:09:29.737Z,14.48
2017-10-22T00:12:04.705Z,14.35
2017-10-22T00:14:38.145Z,14.43
2017-10-22T00:17:10.801Z,14.44
2017-10-22T00:19:49.444Z,13.98
2017-10-22T00:22:22.981Z,14.20
2017-10-22T00:25:06.114Z,14.30
2017-10-22T00:27:37.711Z,14.28
2017-10-22T00:30:15.729Z,14.18
2017-10-22T00:32:47.004Z,13.87
2017-10-22T00:35:22.833Z,13.92
2017-10-22T00:37:54.107Z,14.11
2017-10-22T00:40:30.017Z,14.12
2017-10-22T00:43:03.182Z,13.77
2017-10-22T00:45:38.915Z,14.08
2017-10-22T00:48:10.419Z,14.23
2017-10-22T00:50:41.820Z,14.05
2017-10-22T00:53:13.210Z,14.27
2017-10-22T00:55:46.950Z,14.02
2017-10-22T00:58:19.807Z,13.85
2017-10-22T01:00:54.726Z,14.00
2017-10-22T01:03:29.515Z,13.86
2017-10-22T01:08:42.730Z,14.20
2017-10-22T01:11:13.511Z,13.95
2017-10-22T01:16:34.568Z,14.11
2017-10-22T01:19:06.739Z,14.10
2017-10-22T01:21:37.754Z,14.14
2017-10-22T01:24:19.088Z,14.23
2017-10-22T01:26:52.019Z,14.33
2017-10-22T01:29:24.025Z,14.15
2017-10-22T01:31:55.524Z,14.28
2017-10-22T01:34:26.417Z,14.20
2017-10-22T01:36:57.416Z,14.20
2017-10-22T01:40:15.089Z,14.35
2017-10-22T01:42:46.304Z,14.40
2017-10-22T01:45:21.334Z,14.44
2017-10-22T01:47:52.701Z,14.48
2017-10-22T01:50:23.999Z,14.37
2017-10-22T01:52:56.954Z,14.30
2017-10-22T01:55:29.211Z,14.27
2017-10-22T01:58:01.116Z,14.21
2017-10-22T02:00:37.916Z,14.11
2017-10-22T02:06:14.423Z,13.70
2017-10-22T02:08:45.219Z,13.66
2017-10-22T02:11:16.944Z,13.78
2017-10-22T02:13:48.394Z,13.60
2017-10-22T02:16:19.828Z,13.79
2017-10-22T02:18:50.743Z,13.52
2017-10-22T02:21:25.033Z,13.86
2017-10-22T02:23:55.872Z,13.95
2017-10-22T02:26:26.937Z,14.05
2017-10-22T02:28:58.436Z,14.31
2017-10-22T02:31:30.240Z,14.02
2017-10-22T02:34:03.334Z,13.65
2017-10-22T02:39:37.316Z,13.84
2017-10-22T02:42:08.516Z,13.92
2017-10-22T02:44:39.612Z,13.80
2017-10-22T02:47:10.829Z,13.80
2017-10-22T02:49:41.701Z,13.96
2017-10-22T02:52:14.813Z,13.63
2017-10-22T02:54:46.305Z,13.51
2017-10-22T02:57:17.328Z,13.69
2017-10-22T02:59:48.397Z,13.38
2017-10-22T03:02:20.205Z,13.42
2017-10-22T03:05:02.397Z,13.47
2017-10-22T03:10:12.917Z,13.48
2017-10-22T03:12:48.717Z,13.22
2017-10-22T03:15:20.819Z,13.44
2017-10-22T03:17:51.720Z,13.37
2017-10-22T03:20:28.637Z,13.39
2017-10-22T03:23:00.047Z,13.38
2017-10-22T03:25:30.628Z,13.64
2017-10-22T03:28:04.773Z,13.60
2017-10-22T03:30:37.733Z,13.51
2017-10-22T03:33:08.933Z,13.58
2017-10-22T03:35:43.802Z,13.71
2017-10-22T03:38:15.342Z,13.98
2017-10-22T03:40:47.036Z,14.13
2017-10-22T03:43:18.338Z,14.13
2017-10-22T03:45:49.843Z,14.22
2017-10-22T03:48:21.530Z,13.86
2017-10-22T03:50:53.024Z,14.02
2017-10-22T03:53:29.719Z,14.13
2017-10-22T03:56:03.928Z,14.10
2017-10-22T03:58:36.411Z,13.94
2017-10-22T04:01:08.427Z,13.78
2017-10-22T04:03:44.904Z,13.60
2017-10-22T04:06:17.386Z,13.76
2017-10-22T04:08:48.889Z,13.74
2017-10-22T04:11:21.049Z,13.56
2017-10-22T04:13:54.801Z,13.17
2017-10-22T04:16:26.618Z,13.21
2017-10-22T04:19:04.698Z,13.24
2017-10-22T04:21:39.948Z,13.17
2017-10-22T04:24:13.152Z,12.76
2017-10-22T04:29:20.645Z,12.68
2017-10-22T04:31:52.249Z,12.82
2017-10-22T04:37:39.343Z,12.86
2017-10-22T04:40:10.887Z,12.88
2017-10-22T04:42:42.491Z,12.72
2017-10-22T04:45:16.849Z,12.63
2017-10-22T04:47:48.904Z,12.77
2017-10-22T04:50:20.440Z,12.67
2017-10-22T04:52:51.734Z,12.62
2017-10-22T04:55:22.542Z,12.80
2017-10-22T04:57:53.929Z,12.80
2017-10-22T05:00:25.929Z,12.45
2017-10-22T05:02:57.412Z,12.45
2017-10-22T05:05:43.218Z,12.52
2017-10-22T05:08:16.825Z,12.37
2017-10-22T05:10:47.627Z,12.58
2017-10-22T05:13:18.706Z,12.73
2017-10-22T05:15:50.108Z,12.64
2017-10-22T05:18:21.301Z,12.57
2017-10-22T05:20:52.799Z,12.49
2017-10-22T05:23:23.700Z,12.47
2017-10-22T05:25:55.119Z,12.58
2017-10-22T05:28:27.330Z,12.37
2017-10-22T05:30:59.927Z,12.43
2017-10-22T05:33:51.335Z,12.31
2017-10-22T05:36:27.925Z,12.45
2017-10-22T05:39:28.947Z,12.44
2017-10-22T05:44:49.469Z,12.78
2017-10-22T05:47:21.018Z,12.69
2017-10-22T05:49:52.565Z,12.66
2017-10-22T05:52:23.973Z,12.79
2017-10-22T05:54:54.987Z,12.70
2017-10-22T05:57:49.909Z,12.66
2017-10-22T06:00:28.322Z,12.75
2017-10-22T06:03:01.160Z,12.91
2017-10-22T06:05:32.232Z,12.78
2017-10-22T06:08:03.428Z,12.97
2017-10-22T06:10:36.018Z,12.58
2017-10-22T06:13:09.038Z,12.61
2017-10-22T06:15:41.407Z,12.81
2017-10-22T06:18:12.624Z,12.65
2017-10-22T06:20:43.420Z,12.82
2017-10-22T06:23:15.011Z,12.58
2017-10-22T06:25:48.017Z,12.67
2017-10-22T06:28:19.808Z,12.94
2017-10-22T06:30:50.861Z,13.15
2017-10-22T06:33:22.119Z,13.19
2017-10-22T06:35:53.301Z,13.05
2017-10-22T06:38:24.621Z,13.19
2017-10-22T06:40:57.071Z,12.99
2017-10-22T06:43:28.293Z,13.13
2017-10-22T06:46:00.202Z,13.14
2017-10-22T06:48:31.987Z,13.27
2017-10-22T06:51:02.783Z,13.24
2017-10-22T06:53:42.588Z,13.38
2017-10-22T06:56:22.548Z,13.48
2017-10-22T07:01:54.977Z,13.34
2017-10-22T07:04:33.291Z,13.52
2017-10-22T07:07:04.483Z,13.63
2017-10-22T07:09:36.492Z,13.49
2017-10-22T07:12:08.983Z,13.56
2017-10-22T07:14:41.005Z,13.46
2017-10-22T07:17:13.222Z,13.49
2017-10-22T07:19:44.276Z,13.49
2017-10-22T07:22:15.478Z,13.41
2017-10-22T07:24:46.295Z,13.32
2017-10-22T07:27:17.575Z,13.56
2017-10-22T07:29:51.172Z,13.64
2017-10-22T07:32:23.286Z,13.63
2017-10-22T07:34:55.668Z,13.64
2017-10-22T07:37:26.882Z,13.68
2017-10-22T07:39:59.366Z,13.48
2017-10-22T07:42:47.516Z,13.56
2017-10-22T07:45:20.042Z,13.47
2017-10-22T07:47:51.368Z,13.40
2017-10-22T07:50:24.065Z,13.53
2017-10-22T07:55:53.292Z,13.68
2017-10-22T07:58:31.166Z,13.56
2017-10-22T08:01:14.585Z,13.64
2017-10-22T08:06:36.255Z,13.71
2017-10-22T08:09:07.781Z,13.79
2017-10-22T08:11:39.756Z,13.73
2017-10-22T08:14:11.306Z,13.60
2017-10-22T08:16:42.222Z,13.61
2017-10-22T08:19:12.933Z,13.54
2017-10-22T08:21:44.874Z,13.70
2017-10-22T08:24:15.636Z,13.70
2017-10-22T08:26:46.837Z,13.70
2017-10-22T08:29:19.328Z,13.83
2017-10-22T08:31:54.014Z,13.78
2017-10-22T08:34:25.380Z,13.72
2017-10-22T08:36:57.985Z,13.87
2017-10-22T08:39:29.147Z,13.93
2017-10-22T08:42:03.082Z,13.98
2017-10-22T08:44:36.043Z,13.85
2017-10-22T08:47:08.304Z,13.88
2017-10-22T08:49:39.224Z,14.01
2017-10-22T08:52:12.628Z,13.91
2017-10-22T08:54:46.229Z,13.84
2017-10-22T08:57:21.635Z,13.75
2017-10-22T08:59:52.795Z,13.85
2017-10-22T09:02:26.603Z,13.77
2017-10-22T09:04:57.385Z,13.83
2017-10-22T09:07:28.882Z,13.83
2017-10-22T09:10:01.785Z,13.85
2017-10-22T09:12:36.293Z,13.91
2017-10-22T09:15:20.627Z,13.90
2017-10-22T09:17:53.178Z,13.84
2017-10-22T09:20:24.712Z,13.73
2017-10-22T09:25:52.311Z,13.82
2017-10-22T09:28:23.614Z,13.61
2017-10-22T09:30:55.152Z,13.70
2017-10-22T09:36:10.968Z,13.69
2017-10-22T09:38:49.183Z,13.76
2017-10-22T09:41:20.465Z,13.69
2017-10-22T09:46:38.094Z,14.07
2017-10-22T09:49:29.760Z,13.93
2017-10-22T09:52:05.212Z,14.10
2017-10-22T09:54:44.558Z,14.21
2017-10-22T09:57:17.875Z,14.30
2017-10-22T09:59:50.435Z,14.24
2017-10-22T10:02:23.782Z,13.94
2017-10-22T10:04:58.827Z,14.15
2017-10-22T10:07:33.291Z,14.21
2017-10-22T10:10:08.715Z,14.28
2017-10-22T10:12:42.795Z,14.41
2017-10-22T10:15:28.959Z,14.43
2017-10-22T10:18:02.111Z,14.35
2017-10-22T10:20:43.883Z,14.40
2017-10-22T10:26:15.733Z,14.39
2017-10-22T10:28:54.419Z,14.19
2017-10-22T10:31:41.776Z,14.09
2017-10-22T10:34:13.489Z,14.34
2017-10-22T10:36:45.984Z,14.40
2017-10-22T10:39:18.590Z,14.51
2017-10-22T10:42:03.703Z,14.28
2017-10-22T10:44:35.683Z,14.18
2017-10-22T10:47:09.424Z,14.14
2017-10-22T10:49:41.895Z,14.00
2017-10-22T10:52:16.675Z,14.11
2017-10-22T10:54:49.493Z,14.20
2017-10-22T10:57:40.975Z,14.26
2017-10-22T11:00:20.155Z,14.38
2017-10-22T11:02:54.355Z,14.33
2017-10-22T11:05:26.561Z,14.30
2017-10-22T11:07:57.740Z,14.29
2017-10-22T11:10:28.671Z,14.24
2017-10-22T11:13:03.966Z,14.35
2017-10-22T11:18:21.098Z,14.27
2017-10-22T11:20:56.364Z,14.15
2017-10-22T11:23:28.755Z,14.20
2017-10-22T11:26:00.079Z,14.29
2017-10-22T11:28:47.746Z,14.38
2017-10-22T11:31:20.750Z,14.39
2017-10-22T11:34:06.450Z,14.56
2017-10-22T11:37:40.436Z,14.92
2017-10-22T11:40:12.453Z,14.82
2017-10-22T11:42:48.396Z,15.15
2017-10-22T11:45:24.533Z,15.55
2017-10-22T11:51:00.050Z,15.47
2017-10-22T11:53:37.432Z,15.40
2017-10-22T11:56:14.366Z,15.56
2017-10-22T11:58:50.242Z,15.52
2017-10-22T12:01:25.184Z,15.46
2017-10-22T12:04:00.846Z,15.39
2017-10-22T12:06:35.119Z,15.43
2017-10-22T12:09:21.142Z,15.40
2017-10-22T12:11:51.814Z,15.46
2017-10-22T12:14:23.220Z,15.60
2017-10-22T12:17:00.405Z,15.93
2017-10-22T12:19:35.965Z,16.11
2017-10-22T12:22:08.406Z,16.12
2017-10-22T12:24:42.895Z,16.23
2017-10-22T12:27:17.343Z,16.18
2017-10-22T12:29:49.912Z,16.44
2017-10-22T12:32:23.019Z,16.48
2017-10-22T12:34:57.229Z,16.39
2017-10-22T12:37:36.131Z,16.21
2017-10-22T12:40:16.147Z,16.23
2017-10-22T12:42:49.228Z,16.30
2017-10-22T12:45:22.608Z,16.37
2017-10-22T12:47:56.343Z,16.34
2017-10-22T12:50:33.259Z,16.49
2017-10-22T12:53:08.710Z,16.67
2017-10-22T12:55:40.670Z,16.70
2017-10-22T12:58:16.629Z,16.95
2017-10-22T13:00:50.042Z,16.95
2017-10-22T13:03:32.778Z,16.87
2017-10-22T13:06:07.541Z,16.70
2017-10-22T13:08:39.981Z,16.33
2017-10-22T13:11:12.138Z,16.26
2017-10-22T13:13:44.446Z,16.31
2017-10-22T13:16:21.801Z,16.39
2017-10-22T13:18:54.653Z,16.31
2017-10-22T13:21:30.654Z,16.46
2017-10-22T13:24:28.179Z,16.35
2017-10-22T13:27:01.070Z,16.19
2017-10-22T13:29:41.158Z,16.33
2017-10-22T13:32:15.279Z,16.36
2017-10-22T13:35:05.784Z,16.17
2017-10-22T13:37:44.677Z,16.09
2017-10-22T13:40:16.571Z,15.99
2017-10-22T13:42:49.572Z,15.88
2017-10-22T13:45:22.446Z,15.99
2017-10-22T13:47:58.309Z,16.04
2017-10-22T13:50:31.175Z,15.93
2017-10-22T13:53:02.478Z,16.24
2017-10-22T13:55:33.862Z,16.29
2017-10-22T13:58:20.737Z,16.11
2017-10-22T14:00:54.179Z,16.03
2017-10-22T14:03:38.910Z,15.94
2017-10-22T14:06:10.549Z,15.88
2017-10-22T14:08:47.028Z,15.85
2017-10-22T14:11:19.257Z,15.91
2017-10-22T14:14:44.649Z,15.96
2017-10-22T14:17:16.456Z,15.89
2017-10-22T14:19:51.365Z,15.96
2017-10-22T14:22:24.361Z,15.94
2017-10-22T14:24:56.577Z,16.04
2017-10-22T14:27:31.503Z,16.21
2017-10-22T14:32:52.887Z,16.30
2017-10-22T14:38:11.899Z,16.06
2017-10-22T14:40:46.507Z,16.23
2017-10-22T14:43:21.392Z,16.16
2017-10-22T14:45:58.626Z,16.07
2017-10-22T14:48:49.162Z,16.05
2017-10-22T14:51:29.490Z,16.02
2017-10-22T14:54:20.825Z,16.10
2017-10-22T14:57:07.813Z,16.13
2017-10-22T14:59:45.452Z,16.17
2017-10-22T15:05:02.277Z,16.02
2017-10-22T15:10:20.870Z,16.14
2017-10-22T15:12:55.338Z,16.03
2017-10-22T15:15:35.662Z,15.86
2017-10-22T15:20:56.449Z,15.75
2017-10-22T15:23:48.020Z,15.48
2017-10-22T15:26:41.854Z,15.43
2017-10-22T15:29:18.748Z,15.38
2017-10-22T15:31:55.571Z,15.15
2017-10-22T15:34:37.133Z,15.17
2017-10-22T15:40:06.417Z,15.19
2017-10-22T15:42:50.397Z,15.41
2017-10-22T15:45:31.881Z,15.39
2017-10-22T15:48:13.681Z,15.39
2017-10-22T15:50:45.638Z,15.36
2017-10-22T15:53:26.768Z,15.30
2017-10-22T15:55:59.377Z,15.25
2017-10-22T15:58:35.123Z,15.29
2017-10-22T16:01:08.597Z,15.36
2017-10-22T16:03:40.058Z,15.49
2017-10-22T16:06:14.973Z,15.41
2017-10-22T16:09:09.399Z,15.27
2017-10-22T16:11:44.519Z,15.18
2017-10-22T16:14:23.069Z,15.17
2017-10-22T16:16:57.474Z,15.08
2017-10-22T16:19:32.341Z,15.01
2017-10-22T16:22:08.120Z,15.14
2017-10-22T16:24:45.338Z,15.16
2017-10-22T16:27:18.229Z,15.03
2017-10-22T16:29:52.905Z,15.00
2017-10-22T16:32:32.214Z,15.06
2017-10-22T16:35:07.139Z,15.08
2017-10-22T16:37:47.966Z,15.12
2017-10-22T16:40:26.748Z,15.08
2017-10-22T16:43:01.224Z,15.05
2017-10-22T16:45:38.756Z,14.99
2017-10-22T16:48:13.552Z,15.16
2017-10-22T16:50:47.010Z,15.08
2017-10-22T16:53:21.029Z,15.04
2017-10-22T16:55:57.503Z,14.95
2017-10-22T17:01:16.342Z,14.68
2017-10-22T17:03:48.897Z,14.62
2017-10-22T17:06:21.976Z,14.53
2017-10-22T17:08:55.791Z,14.56
2017-10-22T17:11:30.951Z,14.52
2017-10-22T17:18:00.540Z,14.66
2017-10-22T17:20:40.579Z,14.63
2017-10-22T17:23:21.747Z,14.65
2017-10-22T17:25:56.145Z,14.64
2017-10-22T17:28:33.043Z,14.54
2017-10-22T17:34:46.239Z,14.65
2017-10-22T17:37:18.353Z,14.79
2017-10-22T17:39:52.084Z,14.72
2017-10-22T17:42:25.137Z,14.78
2017-10-22T17:44:58.376Z,14.76
2017-10-22T17:47:32.568Z,14.59
2017-10-22T17:50:06.873Z,14.67
2017-10-22T17:52:40.766Z,14.67
2017-10-22T17:55:12.062Z,14.65
2017-10-22T17:57:45.104Z,14.61
2017-10-22T18:00:24.874Z,14.45
2017-10-22T18:03:01.097Z,14.63
2017-10-22T18:05:34.129Z,14.60
2017-10-22T18:08:10.546Z,14.55
2017-10-22T18:10:45.873Z,14.65
2017-10-22T18:13:19.260Z,14.75
2017-10-22T18:15:56.199Z,14.68
2017-10-22T18:18:29.381Z,14.64
2017-10-22T18:21:05.874Z,14.76
2017-10-22T18:23:48.046Z,14.87
2017-10-22T18:26:21.387Z,14.81
2017-10-22T18:28:58.667Z,14.68
2017-10-22T18:31:43.147Z,14.85
2017-10-22T18:34:19.637Z,14.94
2017-10-22T18:36:56.469Z,15.00
2017-10-22T18:39:38.072Z,14.78
2017-10-22T18:42:15.738Z,14.72
2017-10-22T18:44:51.369Z,14.82
2017-10-22T18:47:34.131Z,14.75
2017-10-22T18:51:12.996Z,14.77
2017-10-22T18:53:46.565Z,14.69
2017-10-22T18:56:19.754Z,14.50
2017-10-22T18:58:52.956Z,14.45
2017-10-22T19:01:29.421Z,14.44
2017-10-22T19:04:05.182Z,14.49
2017-10-22T19:06:40.763Z,14.60
2017-10-22T19:09:16.663Z,14.56
2017-10-22T19:11:51.168Z,14.54
2017-10-22T19:14:25.878Z,14.53
2017-10-22T19:17:02.167Z,14.46
2017-10-22T19:22:20.404Z,14.49
2017-10-22T19:25:00.503Z,14.34
2017-10-22T19:27:33.200Z,14.47
2017-10-22T19:30:09.297Z,14.45
2017-10-22T19:32:43.155Z,14.56
2017-10-22T19:35:21.433Z,14.57
2017-10-22T19:37:55.734Z,14.66
2017-10-22T19:40:28.660Z,14.74
2017-10-22T19:43:00.535Z,14.75
2017-10-22T19:48:25.614Z,14.56
2017-10-22T19:51:01.163Z,14.53
2017-10-22T19:53:44.323Z,14.62
2017-10-22T19:56:32.868Z,14.65
2017-10-22T19:59:17.085Z,14.53
2017-10-22T20:01:56.281Z,14.51
2017-10-22T20:04:47.123Z,14.51
2017-10-22T20:07:30.033Z,14.57
2017-10-22T20:10:25.208Z,14.48
2017-10-22T20:15:40.260Z,14.47
2017-10-22T20:18:21.141Z,14.42
2017-10-22T20:20:55.356Z,14.28
2017-10-22T20:23:29.132Z,14.26
2017-10-22T20:26:04.171Z,14.26
2017-10-22T20:28:42.460Z,14.32
2017-10-22T20:31:23.673Z,14.28
2017-10-22T20:33:57.266Z,14.29
2017-10-22T20:36:29.132Z,14.39
2017-10-22T20:39:03.349Z,14.32
2017-10-22T20:41:39.570Z,14.28
2017-10-22T20:44:17.307Z,14.25
2017-10-22T20:46:51.940Z,14.05
2017-10-22T20:49:31.496Z,14.17
2017-10-22T20:52:03.959Z,14.04
2017-10-22T20:54:37.974Z,14.03
2017-10-22T20:57:17.433Z,14.04
2017-10-22T20:59:49.415Z,14.02
2017-10-22T21:02:22.081Z,14.07
2017-10-22T21:04:55.971Z,13.95
2017-10-22T21:07:31.240Z,13.95
2017-10-22T21:10:04.997Z,14.03
2017-10-22T21:12:44.158Z,13.91
2017-10-22T21:15:21.226Z,13.93
2017-10-22T21:17:54.214Z,13.88
2017-10-22T21:20:28.849Z,13.82
2017-10-22T21:23:01.469Z,13.90
2017-10-22T21:25:48.729Z,13.91
2017-10-22T21:28:20.955Z,13.93
2017-10-22T21:32:14.161Z,13.75
2017-10-22T21:34:46.589Z,13.64
2017-10-22T21:37:19.494Z,13.69
2017-10-22T21:39:51.132Z,13.82
2017-10-22T21:42:21.784Z,13.79
2017-10-22T21:44:56.101Z,13.76
2017-10-22T21:47:29.125Z,13.65
2017-10-22T21:50:03.261Z,13.67
2017-10-22T21:52:46.848Z,13.72
2017-10-22T21:55:33.043Z,13.78
2017-10-22T21:58:08.873Z,13.72
2017-10-22T22:00:56.565Z,13.63
2017-10-22T22:03:34.921Z,13.60
2017-10-22T22:06:18.440Z,13.77
2017-10-22T22:08:56.445Z,13.74
2017-10-22T22:11:32.209Z,13.62
2017-10-22T22:14:04.600Z,13.72
2017-10-22T22:19:25.402Z,13.77
2017-10-22T22:22:01.846Z,13.69
2017-10-22T22:24:32.974Z,13.83
2017-10-22T22:27:05.150Z,13.62
2017-10-22T22:29:41.746Z,13.71
2017-10-22T22:32:20.931Z,13.74
2017-10-22T22:34:53.527Z,13.64
2017-10-22T22:37:25.037Z,13.66
2017-10-22T22:39:56.306Z,13.68
2017-10-22T22:42:33.942Z,13.75
2017-10-22T22:45:27.515Z,13.77
2017-10-22T22:50:41.073Z,13.91
2017-10-22T22:53:23.186Z,13.81
2017-10-22T22:55:56.269Z,13.65
2017-10-22T22:58:32.539Z,13.35
2017-10-22T23:01:05.958Z,13.43
2017-10-22T23:03:48.587Z,13.52
2017-10-22T23:06:24.997Z,13.61
2017-10-22T23:08:59.585Z,13.66
2017-10-22T23:11:33.280Z,13.62
2017-10-22T23:14:07.469Z,13.70
2017-10-22T23:16:42.883Z,13.78
2017-10-22T23:19:17.957Z,13.74
2017-10-22T23:21:54.268Z,13.57
2017-10-22T23:24:29.363Z,13.64
2017-10-22T23:32:20.426Z,13.70
2017-10-22T23:34:53.101Z,13.68
2017-10-22T23:37:29.764Z,13.60
2017-10-22T23:40:14.175Z,13.61
2017-10-22T23:42:47.721Z,13.66
2017-10-22T23:45:24.229Z,13.70
2017-10-22T23:47:55.862Z,13.55
2017-10-22T23:50:31.438Z,13.49
2017-10-22T23:53:06.891Z,13.52
2017-10-22T23:55:40.870Z,13.60
2017-10-22T23:58:12.897Z,13.63
